Time;durP1;ratioP1;P1;durP2;ratioP2;P2;SDS_P1;SDS_P2;PMS_P1;PMS_P2;Temp;Humidity;BMP_temperature;BMP_pressure;BME280_temperature;BME280_humidity;BME280_pressure;Samples;Min_cycle;Max_cycle;Signal;HPM_P1;HPM_P2
2022/08/21 00:02:03;;;;;;;13.00;6.27;;;;;;;;;;5048837;28;20595;-77
2022/08/21 00:04:30;;;;;;;11.90;6.77;;;;;;;;;;5044648;28;20303;-77
2022/08/21 00:06:58;;;;;;;14.17;6.30;;;;;;;;;;5045507;28;20229;-78
2022/08/21 00:09:25;;;;;;;11.23;6.57;;;;;;;;;;5047095;28;20211;-78
2022/08/21 00:11:52;;;;;;;12.27;6.90;;;;;;;;;;5047928;28;20228;-78
2022/08/21 00:14:19;;;;;;;12.50;6.13;;;;;;;;;;5043413;28;20217;-78
2022/08/21 00:16:48;;;;;;;12.77;6.63;;;;;;;;;;5048388;28;20666;-78
2022/08/21 00:19:15;;;;;;;11.47;6.87;;;;;;;;;;5046682;28;20286;-77
2022/08/21 00:21:42;;;;;;;16.20;6.70;;;;;;;;;;5044837;28;20270;-77
2022/08/21 00:24:09;;;;;;;13.73;6.70;;;;;;;;;;5048241;28;20207;-77
2022/08/21 00:26:37;;;;;;;14.43;7.40;;;;;;;;;;5043392;28;20229;-77
2022/08/21 00:29:04;;;;;;;15.90;7.43;;;;;;;;;;5049714;28;20289;-77
2022/08/21 00:31:31;;;;;;;11.83;6.57;;;;;;;;;;5052365;28;20230;-77
2022/08/21 00:34:00;;;;;;;13.63;6.90;;;;;;;;;;5046295;28;20207;-78
2022/08/21 00:36:27;;;;;;;15.93;7.00;;;;;;;;;;5046043;28;20551;-78
2022/08/21 00:38:54;;;;;;;13.47;6.77;;;;;;;;;;5045503;28;20290;-78
2022/08/21 00:41:22;;;;;;;13.27;6.70;;;;;;;;;;5043380;28;20724;-78
2022/08/21 00:43:51;;;;;;;16.00;6.47;;;;;;;;;;5047712;28;20261;-77
2022/08/21 00:46:18;;;;;;;13.33;6.73;;;;;;;;;;5043820;28;20207;-76
2022/08/21 00:48:46;;;;;;;13.60;6.97;;;;;;;;;;5047275;28;20204;-77
2022/08/21 00:51:18;;;;;;;17.40;7.43;;;;;;;;;;5047085;28;20717;-77
2022/08/21 00:53:46;;;;;;;16.67;7.40;;;;;;;;;;5044596;28;20203;-78
2022/08/21 00:56:15;;;;;;;16.93;7.43;;;;;;;;;;5046323;28;20238;-78
2022/08/21 00:58:43;;;;;;;12.63;7.60;;;;;;;;;;5045219;28;20217;-77
2022/08/21 01:01:10;;;;;;;13.23;6.87;;;;;;;;;;5047839;28;20227;-78
2022/08/21 01:03:38;;;;;;;19.30;7.70;;;;;;;;;;5047032;28;20290;-78
2022/08/21 01:06:05;;;;;;;15.53;7.63;;;;;;;;;;5043553;28;20229;-77
2022/08/21 01:08:34;;;;;;;15.80;7.37;;;;;;;;;;5043959;28;20306;-79
2022/08/21 01:11:02;;;;;;;15.70;7.17;;;;;;;;;;5043093;28;20247;-78
2022/08/21 01:13:31;;;;;;;16.97;7.43;;;;;;;;;;5042841;28;20207;-77
2022/08/21 01:16:00;;;;;;;15.70;7.90;;;;;;;;;;5043107;28;20199;-79
2022/08/21 01:18:27;;;;;;;17.67;7.63;;;;;;;;;;5040021;28;20207;-77
2022/08/21 01:21:01;;;;;;;13.63;7.57;;;;;;;;;;5040744;28;20225;-78
2022/08/21 01:23:29;;;;;;;16.23;7.23;;;;;;;;;;5045784;28;20218;-78
2022/08/21 01:25:56;;;;;;;14.13;7.20;;;;;;;;;;5042765;28;20218;-77
2022/08/21 01:28:23;;;;;;;15.77;7.80;;;;;;;;;;5041995;28;20269;-77
2022/08/21 01:30:52;;;;;;;14.97;7.83;;;;;;;;;;5043903;28;20230;-78
2022/08/21 01:33:20;;;;;;;12.87;6.97;;;;;;;;;;5046327;28;20238;-76
2022/08/21 01:35:48;;;;;;;20.30;8.33;;;;;;;;;;5042728;28;20203;-78
2022/08/21 01:38:17;;;;;;;12.40;7.47;;;;;;;;;;5047690;28;20221;-78
2022/08/21 01:40:44;;;;;;;15.67;7.93;;;;;;;;;;5044347;28;20246;-78
2022/08/21 01:43:11;;;;;;;13.50;7.50;;;;;;;;;;5043774;28;20214;-78
2022/08/21 01:45:38;;;;;;;21.23;8.40;;;;;;;;;;5043612;28;20253;-78
2022/08/21 01:48:06;;;;;;;18.13;8.13;;;;;;;;;;5041282;28;20215;-78
2022/08/21 01:50:33;;;;;;;14.20;8.43;;;;;;;;;;5047431;28;20227;-78
2022/08/21 01:53:00;;;;;;;18.47;7.80;;;;;;;;;;5042753;28;20350;-77
2022/08/21 01:55:29;;;;;;;18.37;8.83;;;;;;;;;;5043288;28;20773;-78
2022/08/21 01:57:56;;;;;;;17.63;8.67;;;;;;;;;;5037989;28;20210;-77
2022/08/21 02:00:23;;;;;;;19.10;8.87;;;;;;;;;;5046926;28;20218;-78
2022/08/21 02:02:51;;;;;;;16.10;8.47;;;;;;;;;;5041505;28;20237;-77
2022/08/21 02:05:19;;;;;;;14.30;8.60;;;;;;;;;;5041624;28;20242;-77
2022/08/21 02:07:47;;;;;;;19.83;8.80;;;;;;;;;;5036910;28;20705;-79
2022/08/21 02:10:16;;;;;;;17.13;8.13;;;;;;;;;;5045897;28;20315;-78
2022/08/21 02:12:44;;;;;;;22.07;8.63;;;;;;;;;;5043542;28;20207;-77
2022/08/21 02:15:12;;;;;;;16.77;8.30;;;;;;;;;;5041102;28;20203;-77
2022/08/21 02:17:40;;;;;;;18.00;8.43;;;;;;;;;;5042417;28;20217;-77
2022/08/21 02:20:08;;;;;;;17.13;8.60;;;;;;;;;;5040230;28;20211;-77
2022/08/21 02:22:35;;;;;;;17.70;8.87;;;;;;;;;;5040366;28;20209;-77
2022/08/21 02:25:02;;;;;;;19.03;9.00;;;;;;;;;;5041793;28;20673;-77
2022/08/21 02:27:29;;;;;;;18.53;8.63;;;;;;;;;;5045503;28;20310;-77
2022/08/21 02:29:58;;;;;;;13.33;8.17;;;;;;;;;;5040573;28;20290;-77
2022/08/21 02:32:26;;;;;;;15.60;8.53;;;;;;;;;;5036766;28;20639;-79
2022/08/21 02:34:53;;;;;;;16.03;8.30;;;;;;;;;;5044641;28;20285;-78
2022/08/21 02:37:20;;;;;;;17.27;8.63;;;;;;;;;;5039897;28;20204;-79
2022/08/21 02:39:48;;;;;;;16.23;8.57;;;;;;;;;;5045046;28;20201;-79
2022/08/21 02:42:15;;;;;;;20.50;7.83;;;;;;;;;;5044963;28;20601;-79
2022/08/21 02:44:42;;;;;;;15.37;8.27;;;;;;;;;;5043930;28;20290;-78
2022/08/21 02:47:10;;;;;;;15.07;8.23;;;;;;;;;;5043183;28;20752;-79
2022/08/21 02:49:38;;;;;;;17.37;8.33;;;;;;;;;;5044461;28;20296;-78
2022/08/21 02:52:05;;;;;;;19.70;8.83;;;;;;;;;;5047665;28;20215;-78
2022/08/21 02:54:32;;;;;;;15.70;8.03;;;;;;;;;;5042413;28;20208;-78
2022/08/21 02:56:59;;;;;;;17.53;8.10;;;;;;;;;;5045546;28;20295;-78
2022/08/21 02:59:27;;;;;;;17.30;8.07;;;;;;;;;;5044334;28;20203;-78
2022/08/21 03:01:55;;;;;;;18.60;9.20;;;;;;;;;;5042979;28;20258;-78
2022/08/21 03:04:24;;;;;;;15.93;8.23;;;;;;;;;;5036909;28;20246;-78
2022/08/21 03:06:51;;;;;;;15.60;7.63;;;;;;;;;;5038526;28;20253;-78
2022/08/21 03:09:18;;;;;;;14.10;8.23;;;;;;;;;;5046617;28;20572;-78
2022/08/21 03:11:45;;;;;;;17.60;8.80;;;;;;;;;;5047422;28;20920;-78
2022/08/21 03:14:12;;;;;;;19.70;8.83;;;;;;;;;;5048739;28;20210;-78
2022/08/21 03:16:40;;;;;;;17.47;8.13;;;;;;;;;;5049891;28;20215;-79
2022/08/21 03:19:07;;;;;;;15.60;7.90;;;;;;;;;;5039315;28;20226;-78
2022/08/21 03:21:36;;;;;;;17.47;8.93;;;;;;;;;;5045458;28;20238;-78
2022/08/21 03:24:04;;;;;;;13.00;7.60;;;;;;;;;;5040307;28;20281;-78
2022/08/21 03:26:31;;;;;;;15.07;8.37;;;;;;;;;;5039930;28;20591;-78
2022/08/21 03:28:58;;;;;;;16.63;7.90;;;;;;;;;;5044673;28;20231;-78
2022/08/21 03:31:28;;;;;;;15.80;8.27;;;;;;;;;;5045393;28;20233;-77
2022/08/21 03:33:56;;;;;;;16.87;8.33;;;;;;;;;;5053324;28;20199;-78
2022/08/21 03:36:23;;;;;;;17.93;8.17;;;;;;;;;;5043755;28;20611;-78
2022/08/21 03:38:52;;;;;;;15.47;7.70;;;;;;;;;;5046403;28;20213;-77
2022/08/21 03:41:19;;;;;;;15.87;7.97;;;;;;;;;;5048226;28;20222;-78
2022/08/21 03:43:46;;;;;;;15.47;8.10;;;;;;;;;;5047283;28;20204;-78
2022/08/21 03:46:14;;;;;;;18.13;8.10;;;;;;;;;;5052053;28;20217;-78
2022/08/21 03:48:41;;;;;;;12.93;7.63;;;;;;;;;;5050695;28;20233;-78
2022/08/21 03:51:08;;;;;;;14.13;8.13;;;;;;;;;;5054132;28;20351;-81
2022/08/21 03:53:36;;;;;;;16.73;8.20;;;;;;;;;;5053033;28;20215;-81
2022/08/21 03:56:05;;;;;;;19.93;8.00;;;;;;;;;;5051990;28;20199;-79
2022/08/21 03:58:32;;;;;;;14.40;7.67;;;;;;;;;;5048992;28;20200;-80
2022/08/21 04:01:01;;;;;;;16.13;8.13;;;;;;;;;;5050902;28;20321;-79
2022/08/21 04:03:28;;;;;;;16.60;8.47;;;;;;;;;;5050018;28;20235;-79
2022/08/21 04:05:56;;;;;;;14.93;7.67;;;;;;;;;;5050878;28;20662;-80
2022/08/21 04:08:23;;;;;;;20.77;8.33;;;;;;;;;;5049069;28;20262;-79
2022/08/21 04:10:51;;;;;;;20.03;8.47;;;;;;;;;;5050189;28;20230;-79
2022/08/21 04:13:20;;;;;;;14.27;8.20;;;;;;;;;;5041008;28;20215;-80
2022/08/21 04:15:47;;;;;;;17.10;8.50;;;;;;;;;;5049128;28;20286;-79
2022/08/21 04:18:15;;;;;;;14.87;8.13;;;;;;;;;;5052481;28;20662;-80
2022/08/21 04:20:43;;;;;;;15.57;7.90;;;;;;;;;;5050051;28;20304;-80
2022/08/21 04:23:10;;;;;;;17.27;7.90;;;;;;;;;;5047489;28;20735;-79
2022/08/21 04:25:37;;;;;;;16.33;8.23;;;;;;;;;;5048586;28;20916;-78
2022/08/21 04:28:05;;;;;;;18.53;8.60;;;;;;;;;;5047253;28;20318;-79
2022/08/21 04:30:34;;;;;;;14.53;7.93;;;;;;;;;;5050854;28;20265;-79
2022/08/21 04:33:01;;;;;;;14.83;7.73;;;;;;;;;;5048754;28;20538;-78
2022/08/21 04:35:29;;;;;;;13.67;8.03;;;;;;;;;;5045443;28;20218;-79
2022/08/21 04:37:56;;;;;;;15.07;8.13;;;;;;;;;;5049985;28;20215;-79
2022/08/21 04:40:25;;;;;;;16.47;7.80;;;;;;;;;;5049389;28;20495;-80
2022/08/21 04:42:54;;;;;;;13.00;8.10;;;;;;;;;;5051105;28;20264;-80
2022/08/21 04:45:23;;;;;;;17.27;8.73;;;;;;;;;;5049743;28;20199;-80
2022/08/21 04:47:52;;;;;;;13.97;8.10;;;;;;;;;;5047890;28;20222;-80
2022/08/21 04:50:19;;;;;;;20.40;8.60;;;;;;;;;;5048270;28;20302;-80
2022/08/21 04:52:47;;;;;;;18.87;7.87;;;;;;;;;;5048080;28;20227;-81
2022/08/21 04:55:14;;;;;;;15.90;8.17;;;;;;;;;;5048068;28;20261;-81
2022/08/21 04:57:42;;;;;;;19.23;8.50;;;;;;;;;;5051594;28;20215;-79
2022/08/21 05:00:12;;;;;;;14.87;8.43;;;;;;;;;;5050118;28;20265;-80
2022/08/21 05:02:39;;;;;;;15.80;7.90;;;;;;;;;;5050712;28;20202;-78
2022/08/21 05:05:09;;;;;;;16.93;8.07;;;;;;;;;;5052740;28;20296;-79
2022/08/21 05:07:37;;;;;;;14.73;7.60;;;;;;;;;;5055431;28;20246;-81
2022/08/21 05:10:04;;;;;;;14.33;7.57;;;;;;;;;;5048930;28;20669;-80
2022/08/21 05:12:33;;;;;;;13.77;6.97;;;;;;;;;;5050369;28;20836;-81
2022/08/21 05:15:00;;;;;;;15.83;7.57;;;;;;;;;;5046209;28;20666;-79
2022/08/21 05:17:27;;;;;;;11.97;6.77;;;;;;;;;;5048597;28;20212;-80
2022/08/21 05:19:55;;;;;;;13.53;6.97;;;;;;;;;;5046749;28;20213;-79
2022/08/21 05:22:25;;;;;;;11.33;6.33;;;;;;;;;;5050927;28;20639;-80
2022/08/21 05:24:52;;;;;;;11.23;6.07;;;;;;;;;;5047828;28;20262;-79
2022/08/21 05:27:19;;;;;;;12.17;6.60;;;;;;;;;;5051732;28;20207;-80
2022/08/21 05:29:46;;;;;;;11.77;6.83;;;;;;;;;;5046021;28;20218;-80
2022/08/21 05:32:14;;;;;;;15.20;6.93;;;;;;;;;;5047867;28;20231;-79
2022/08/21 05:34:41;;;;;;;19.17;7.77;;;;;;;;;;5049169;28;20230;-79
2022/08/21 05:37:08;;;;;;;12.23;6.60;;;;;;;;;;5046483;28;20286;-79
2022/08/21 05:39:37;;;;;;;14.17;6.93;;;;;;;;;;5050034;28;20311;-80
2022/08/21 05:42:04;;;;;;;12.33;6.57;;;;;;;;;;5047925;28;20231;-79
2022/08/21 05:44:31;;;;;;;13.70;6.83;;;;;;;;;;5048980;28;20209;-80
2022/08/21 05:47:03;;;;;;;15.80;6.73;;;;;;;;;;5049416;28;20377;-80
2022/08/21 05:49:30;;;;;;;14.30;7.03;;;;;;;;;;5040805;28;20784;-80
2022/08/21 05:51:57;;;;;;;16.50;7.27;;;;;;;;;;5044060;28;20225;-78
2022/08/21 05:54:24;;;;;;;12.63;6.87;;;;;;;;;;5046506;28;20199;-78
2022/08/21 05:56:53;;;;;;;11.53;6.97;;;;;;;;;;5049621;28;20202;-80
2022/08/21 05:59:20;;;;;;;13.87;6.67;;;;;;;;;;5049820;28;20222;-80
2022/08/21 06:01:47;;;;;;;14.53;6.70;;;;;;;;;;5052212;28;20282;-80
2022/08/21 06:04:15;;;;;;;15.50;6.90;;;;;;;;;;5047766;28;20210;-80
2022/08/21 06:06:42;;;;;;;9.93;6.47;;;;;;;;;;5049459;28;20547;-79
2022/08/21 06:09:10;;;;;;;11.57;6.20;;;;;;;;;;5045342;28;20224;-81
2022/08/21 06:11:37;;;;;;;10.30;5.70;;;;;;;;;;5047428;28;20598;-79
2022/08/21 06:14:06;;;;;;;11.73;6.57;;;;;;;;;;5045471;28;20203;-79
2022/08/21 06:16:33;;;;;;;10.03;5.37;;;;;;;;;;5048644;28;20654;-80
2022/08/21 06:19:00;;;;;;;9.27;5.83;;;;;;;;;;5041789;28;20200;-79
2022/08/21 06:21:27;;;;;;;10.37;5.90;;;;;;;;;;5048583;28;20298;-80
2022/08/21 06:23:55;;;;;;;14.27;5.93;;;;;;;;;;5043999;28;20249;-78
2022/08/21 06:26:23;;;;;;;13.03;6.20;;;;;;;;;;5049080;28;20674;-79
2022/08/21 06:28:50;;;;;;;10.23;5.67;;;;;;;;;;5049874;28;20226;-80
2022/08/21 06:31:20;;;;;;;10.83;5.93;;;;;;;;;;5049758;28;20227;-79
2022/08/21 06:33:47;;;;;;;11.07;5.40;;;;;;;;;;5045386;28;20285;-82
2022/08/21 06:36:14;;;;;;;9.40;5.40;;;;;;;;;;5046955;28;20206;-81
2022/08/21 06:38:41;;;;;;;14.97;5.73;;;;;;;;;;5048221;28;20227;-81
2022/08/21 06:41:09;;;;;;;9.50;5.53;;;;;;;;;;5049511;28;20227;-79
2022/08/21 06:43:36;;;;;;;10.87;5.40;;;;;;;;;;5052319;28;20220;-81
2022/08/21 06:46:04;;;;;;;12.63;5.80;;;;;;;;;;5050430;28;20283;-81
2022/08/21 06:48:33;;;;;;;10.30;5.50;;;;;;;;;;5052797;28;20294;-81
2022/08/21 06:51:01;;;;;;;10.53;5.20;;;;;;;;;;5047763;28;20238;-81
2022/08/21 06:53:28;;;;;;;8.50;5.07;;;;;;;;;;5043065;28;20650;-80
2022/08/21 06:55:55;;;;;;;7.67;4.70;;;;;;;;;;5046195;28;20270;-80
2022/08/21 06:58:22;;;;;;;10.50;5.10;;;;;;;;;;5044393;28;20203;-82
2022/08/21 07:00:52;;;;;;;10.67;4.60;;;;;;;;;;5046522;28;20286;-82
2022/08/21 07:03:20;;;;;;;9.83;4.83;;;;;;;;;;5053583;28;20207;-79
2022/08/21 07:05:49;;;;;;;11.13;4.80;;;;;;;;;;5046744;28;20295;-80
2022/08/21 07:08:17;;;;;;;10.47;4.80;;;;;;;;;;5049503;28;20294;-80
2022/08/21 07:10:44;;;;;;;10.13;5.13;;;;;;;;;;5043546;28;20215;-81
2022/08/21 07:13:11;;;;;;;9.90;4.53;;;;;;;;;;5046384;28;20206;-79
2022/08/21 07:15:38;;;;;;;9.00;4.47;;;;;;;;;;5046387;28;20208;-81
2022/08/21 07:18:06;;;;;;;7.90;4.63;;;;;;;;;;5049481;28;20213;-81
2022/08/21 07:20:33;;;;;;;8.37;4.53;;;;;;;;;;5047519;28;20255;-79
2022/08/21 07:23:03;;;;;;;8.60;4.53;;;;;;;;;;5043737;28;20234;-80
2022/08/21 07:25:31;;;;;;;12.57;4.23;;;;;;;;;;5044534;28;20207;-80
2022/08/21 07:27:58;;;;;;;8.30;4.07;;;;;;;;;;5046569;28;20210;-80
2022/08/21 07:30:25;;;;;;;8.77;4.13;;;;;;;;;;5046838;28;20724;-80
2022/08/21 07:32:53;;;;;;;8.60;4.50;;;;;;;;;;5042214;28;20315;-80
2022/08/21 07:35:20;;;;;;;10.10;4.73;;;;;;;;;;5048555;28;20229;-80
2022/08/21 07:37:48;;;;;;;12.17;4.73;;;;;;;;;;5047177;28;20203;-80
2022/08/21 07:40:17;;;;;;;7.77;4.17;;;;;;;;;;5043047;28;20313;-80
2022/08/21 07:42:45;;;;;;;8.23;4.17;;;;;;;;;;5049052;28;20239;-80
2022/08/21 07:45:13;;;;;;;9.80;3.93;;;;;;;;;;5047253;28;20218;-80
2022/08/21 07:47:41;;;;;;;9.17;4.30;;;;;;;;;;5048371;28;20205;-79
2022/08/21 07:50:08;;;;;;;11.57;4.40;;;;;;;;;;5045166;28;20677;-80
2022/08/21 07:52:36;;;;;;;11.77;4.07;;;;;;;;;;5044536;28;20312;-80
2022/08/21 07:55:04;;;;;;;12.67;4.17;;;;;;;;;;5048234;28;20215;-80
2022/08/21 07:57:32;;;;;;;10.33;4.93;;;;;;;;;;5047572;28;20573;-81
2022/08/21 07:59:59;;;;;;;10.53;4.50;;;;;;;;;;5044700;28;20969;-81
2022/08/21 08:02:28;;;;;;;12.80;4.70;;;;;;;;;;5045299;28;20259;-81
2022/08/21 08:04:55;;;;;;;14.23;4.60;;;;;;;;;;5047173;28;20291;-81
2022/08/21 08:07:22;;;;;;;10.87;4.20;;;;;;;;;;5043594;28;20210;-80
2022/08/21 08:09:49;;;;;;;9.10;4.67;;;;;;;;;;5045514;28;20226;-81
2022/08/21 08:12:16;;;;;;;10.60;4.60;;;;;;;;;;5047569;28;20242;-80
2022/08/21 08:14:45;;;;;;;11.20;4.83;;;;;;;;;;5046165;28;20204;-81
2022/08/21 08:17:13;;;;;;;11.13;4.43;;;;;;;;;;5047258;28;20210;-81
2022/08/21 08:19:40;;;;;;;8.47;3.87;;;;;;;;;;5050729;28;20253;-81
2022/08/21 08:22:14;;;;;;;13.87;4.47;;;;;;;;;;5050923;28;20263;-81
2022/08/21 08:24:41;;;;;;;12.53;4.80;;;;;;;;;;5050759;28;20663;-79
2022/08/21 08:27:08;;;;;;;12.33;4.50;;;;;;;;;;5050277;28;20250;-82
2022/08/21 08:29:35;;;;;;;15.30;4.83;;;;;;;;;;5051014;28;20278;-80
2022/08/21 08:32:04;;;;;;;10.57;4.20;;;;;;;;;;5054685;28;20232;-81
2022/08/21 08:34:31;;;;;;;9.77;3.30;;;;;;;;;;5051157;28;20204;-82
2022/08/21 08:36:59;;;;;;;8.90;2.50;;;;;;;;;;5048724;28;20211;-81
2022/08/21 08:39:26;;;;;;;8.83;2.90;;;;;;;;;;5050212;28;20207;-80
2022/08/21 08:41:57;;;;;;;12.93;3.10;;;;;;;;;;5051555;28;20254;-81
2022/08/21 08:44:24;;;;;;;7.87;2.87;;;;;;;;;;5056751;28;20304;-82
2022/08/21 08:46:52;;;;;;;10.10;2.93;;;;;;;;;;5057579;28;20691;-80
2022/08/21 08:49:22;;;;;;;11.70;3.03;;;;;;;;;;5048565;28;20229;-80
2022/08/21 08:51:53;;;;;;;9.67;3.03;;;;;;;;;;5044576;28;20281;-79
2022/08/21 08:54:24;;;;;;;9.20;3.60;;;;;;;;;;5048322;28;20289;-79
2022/08/21 08:56:52;;;;;;;9.67;2.90;;;;;;;;;;5052116;28;20294;-79
2022/08/21 08:59:21;;;;;;;8.00;3.10;;;;;;;;;;5051915;28;20218;-80
2022/08/21 09:01:48;;;;;;;11.00;3.30;;;;;;;;;;5045667;28;20223;-81
2022/08/21 09:04:18;;;;;;;6.70;3.10;;;;;;;;;;5048884;28;20224;-80
2022/08/21 09:06:52;;;;;;;9.40;2.83;;;;;;;;;;5051835;28;20623;-80
2022/08/21 09:09:24;;;;;;;11.50;3.03;;;;;;;;;;5046127;28;20229;-80
2022/08/21 09:11:54;;;;;;;10.40;3.10;;;;;;;;;;5050040;28;20223;-80
2022/08/21 09:14:27;;;;;;;9.87;2.90;;;;;;;;;;5048146;28;20207;-81
2022/08/21 09:16:56;;;;;;;6.30;2.63;;;;;;;;;;5050824;28;20290;-79
2022/08/21 09:19:31;;;;;;;11.33;2.93;;;;;;;;;;5042776;28;20651;-79
2022/08/21 09:22:04;;;;;;;12.27;3.03;;;;;;;;;;5042905;28;20221;-80
2022/08/21 09:24:34;;;;;;;6.23;2.13;;;;;;;;;;5043441;28;20203;-81
2022/08/21 09:27:05;;;;;;;9.23;2.80;;;;;;;;;;5041706;28;20207;-80
2022/08/21 09:29:34;;;;;;;9.97;2.80;;;;;;;;;;5049935;28;20224;-80
2022/08/21 09:32:02;;;;;;;9.80;2.50;;;;;;;;;;5045822;28;20997;-80
2022/08/21 09:34:31;;;;;;;10.60;3.17;;;;;;;;;;5050230;28;20216;-79
2022/08/21 09:36:58;;;;;;;7.10;3.07;;;;;;;;;;5047264;28;20250;-80
2022/08/21 09:39:30;;;;;;;6.43;2.10;;;;;;;;;;5048518;28;20694;-80
2022/08/21 09:41:57;;;;;;;11.97;2.53;;;;;;;;;;5045328;28;20226;-76
2022/08/21 09:44:27;;;;;;;6.93;2.60;;;;;;;;;;5044279;28;20212;-79
2022/08/21 09:46:54;;;;;;;10.63;2.80;;;;;;;;;;5044993;28;20236;-78
2022/08/21 09:49:28;;;;;;;6.23;2.30;;;;;;;;;;5047963;28;20299;-77
2022/08/21 09:51:56;;;;;;;7.53;2.53;;;;;;;;;;5046545;28;20222;-78
2022/08/21 09:54:26;;;;;;;7.83;2.47;;;;;;;;;;5044529;28;20210;-79
2022/08/21 09:59:41;;;;;;;4.90;2.10;;;;;;;;;;5047089;28;20203;-78
2022/08/21 10:02:23;;;;;;;7.20;1.97;;;;;;;;;;5045684;28;20635;-77
2022/08/21 10:04:51;;;;;;;6.73;1.90;;;;;;;;;;5047782;28;20637;-78
2022/08/21 10:07:21;;;;;;;6.60;1.80;;;;;;;;;;5044058;28;20234;-78
2022/08/21 10:09:59;;;;;;;7.80;1.77;;;;;;;;;;5044494;28;20297;-77
2022/08/21 10:12:32;;;;;;;8.63;2.20;;;;;;;;;;5049783;28;20290;-79
2022/08/21 10:15:03;;;;;;;13.43;2.40;;;;;;;;;;5045261;28;20681;-78
2022/08/21 10:17:33;;;;;;;3.40;1.63;;;;;;;;;;5049185;28;20233;-77
2022/08/21 10:20:05;;;;;;;3.10;1.60;;;;;;;;;;5049428;28;20250;-78
2022/08/21 10:22:36;;;;;;;4.77;1.93;;;;;;;;;;5044274;28;20209;-78
2022/08/21 10:25:07;;;;;;;4.93;2.00;;;;;;;;;;5046809;28;20991;-76
2022/08/21 10:27:41;;;;;;;3.53;1.60;;;;;;;;;;5049392;28;20297;-77
2022/08/21 10:30:10;;;;;;;6.77;1.93;;;;;;;;;;5045504;28;20315;-79
2022/08/21 10:32:42;;;;;;;4.77;1.73;;;;;;;;;;5050161;28;20219;-79
2022/08/21 10:35:12;;;;;;;4.63;1.87;;;;;;;;;;5047315;28;20338;-80
2022/08/21 10:37:46;;;;;;;5.30;1.57;;;;;;;;;;5047029;28;20322;-79
2022/08/21 10:40:17;;;;;;;5.27;1.60;;;;;;;;;;5047197;28;20257;-79
2022/08/21 10:42:50;;;;;;;5.30;1.80;;;;;;;;;;5047610;28;20261;-78
2022/08/21 10:45:24;;;;;;;4.97;1.57;;;;;;;;;;5040693;28;20302;-78
2022/08/21 10:47:54;;;;;;;4.90;1.80;;;;;;;;;;5044481;28;20207;-79
2022/08/21 10:50:30;;;;;;;4.47;1.67;;;;;;;;;;5040892;28;20727;-78
2022/08/21 10:53:16;;;;;;;4.67;1.63;;;;;;;;;;5042169;28;20295;-77
2022/08/21 10:55:45;;;;;;;3.77;1.87;;;;;;;;;;5046916;28;20706;-79
2022/08/21 10:58:16;;;;;;;6.00;1.60;;;;;;;;;;5046766;28;20205;-78
2022/08/21 11:00:45;;;;;;;7.07;1.50;;;;;;;;;;5047343;28;20243;-79
2022/08/21 11:03:14;;;;;;;3.77;1.63;;;;;;;;;;5041860;28;21435;-77
2022/08/21 11:05:43;;;;;;;4.40;1.67;;;;;;;;;;5047861;28;20203;-78
2022/08/21 11:08:13;;;;;;;6.50;1.60;;;;;;;;;;5043769;28;20322;-78
2022/08/21 11:10:42;;;;;;;4.77;1.77;;;;;;;;;;5046977;28;20230;-77
2022/08/21 11:13:15;;;;;;;7.60;1.43;;;;;;;;;;5046459;28;20207;-78
2022/08/21 11:15:47;;;;;;;3.83;1.57;;;;;;;;;;5049554;28;20680;-77
2022/08/21 11:18:21;;;;;;;3.40;1.70;;;;;;;;;;5042550;28;20283;-77
2022/08/21 11:20:50;;;;;;;3.13;1.50;;;;;;;;;;5050181;28;20229;-76
2022/08/21 11:23:20;;;;;;;5.43;1.90;;;;;;;;;;5048971;28;20206;-78
2022/08/21 11:25:50;;;;;;;6.43;1.80;;;;;;;;;;5048421;28;20208;-76
2022/08/21 11:28:23;;;;;;;4.13;1.67;;;;;;;;;;5056458;28;20238;-79
2022/08/21 11:30:54;;;;;;;6.43;2.27;;;;;;;;;;5041599;28;20324;-77
2022/08/21 11:33:30;;;;;;;4.80;1.60;;;;;;;;;;5037265;28;21032;-78
2022/08/21 11:36:03;;;;;;;4.60;1.73;;;;;;;;;;5043714;28;20765;-77
2022/08/21 11:38:35;;;;;;;5.40;1.70;;;;;;;;;;5044872;28;20245;-78
2022/08/21 11:41:09;;;;;;;2.40;1.50;;;;;;;;;;5047200;28;20219;-80
2022/08/21 11:43:39;;;;;;;2.43;1.40;;;;;;;;;;5042839;28;20210;-77
2022/08/21 11:46:15;;;;;;;3.70;1.60;;;;;;;;;;5040065;28;20569;-78
2022/08/21 11:48:47;;;;;;;2.53;1.30;;;;;;;;;;5038186;28;20214;-77
2022/08/21 11:51:17;;;;;;;11.00;1.30;;;;;;;;;;5046541;28;20666;-78
2022/08/21 11:53:51;;;;;;;5.83;1.30;;;;;;;;;;5046105;28;20205;-78
2022/08/21 11:56:20;;;;;;;3.67;1.33;;;;;;;;;;5041279;28;22167;-79
2022/08/21 11:58:51;;;;;;;4.33;1.27;;;;;;;;;;5043288;28;20210;-79
2022/08/21 12:01:22;;;;;;;4.57;1.50;;;;;;;;;;5043574;28;20357;-78
2022/08/21 12:03:54;;;;;;;4.93;1.33;;;;;;;;;;5047016;28;20203;-79
2022/08/21 12:06:30;;;;;;;4.77;1.30;;;;;;;;;;5047558;28;20230;-79
2022/08/21 12:12:04;;;;;;;3.57;1.10;;;;;;;;;;5041620;28;20240;-79
2022/08/21 12:14:37;;;;;;;4.00;1.10;;;;;;;;;;5040366;28;20205;-79
2022/08/21 12:17:07;;;;;;;3.07;1.20;;;;;;;;;;5042513;28;20215;-78
2022/08/21 12:19:35;;;;;;;11.77;1.33;;;;;;;;;;5038256;28;20297;-78
2022/08/21 12:22:10;;;;;;;4.67;1.20;;;;;;;;;;5039563;28;20219;-78
2022/08/21 12:24:38;;;;;;;4.60;1.20;;;;;;;;;;5042060;28;20298;-79
2022/08/21 12:27:15;;;;;;;2.53;0.90;;;;;;;;;;5049250;28;20199;-79
2022/08/21 12:29:47;;;;;;;5.00;1.30;;;;;;;;;;5043669;28;20503;-78
2022/08/21 12:32:24;;;;;;;4.40;1.40;;;;;;;;;;5044553;28;20772;-78
2022/08/21 12:34:53;;;;;;;2.43;1.20;;;;;;;;;;5051419;28;20245;-79
2022/08/21 12:37:24;;;;;;;2.60;1.00;;;;;;;;;;5045903;28;20214;-78
2022/08/21 12:39:52;;;;;;;2.13;0.90;;;;;;;;;;5049481;28;20541;-79
2022/08/21 13:01:03;;;;;;;5.60;1.07;;;;;;;;;;5041841;28;20260;-78
2022/08/21 13:03:30;;;;;;;2.83;0.90;;;;;;;;;;5046390;28;20304;-79
2022/08/21 13:05:59;;;;;;;5.03;0.90;;;;;;;;;;5046554;28;20213;-78
2022/08/21 13:08:27;;;;;;;2.40;0.80;;;;;;;;;;5047057;28;20234;-78
2022/08/21 13:10:59;;;;;;;1.67;0.90;;;;;;;;;;5044859;28;20222;-78
2022/08/21 13:13:28;;;;;;;2.10;0.90;;;;;;;;;;5047497;28;20252;-77
2022/08/21 13:15:59;;;;;;;1.83;0.97;;;;;;;;;;5046277;28;20839;-78
2022/08/21 13:18:31;;;;;;;2.60;1.00;;;;;;;;;;5046311;28;20238;-78
2022/08/21 13:21:05;;;;;;;2.63;1.00;;;;;;;;;;5043518;28;20314;-79
2022/08/21 13:23:32;;;;;;;2.73;1.10;;;;;;;;;;5047818;28;20230;-77
2022/08/21 13:26:00;;;;;;;2.67;1.10;;;;;;;;;;5050926;28;20242;-79
2022/08/21 13:28:34;;;;;;;1.67;1.00;;;;;;;;;;5045318;28;20212;-78
2022/08/21 13:31:02;;;;;;;3.13;1.20;;;;;;;;;;5047276;28;20222;-79
2022/08/21 13:33:32;;;;;;;3.43;1.03;;;;;;;;;;5050347;28;20207;-78
2022/08/21 13:36:06;;;;;;;2.17;1.00;;;;;;;;;;5050972;28;20234;-78
2022/08/21 13:44:26;;;;;;;3.83;1.00;;;;;;;;;;5013716;28;20193;-78
2022/08/21 13:46:53;;;;;;;3.23;0.80;;;;;;;;;;5039451;28;20208;-79
2022/08/21 13:49:25;;;;;;;3.53;1.07;;;;;;;;;;5043605;28;20213;-78
2022/08/21 13:51:52;;;;;;;2.80;1.10;;;;;;;;;;5043334;28;20708;-79
2022/08/21 13:54:25;;;;;;;2.13;0.80;;;;;;;;;;5047083;28;20265;-78
2022/08/21 13:56:53;;;;;;;2.13;0.93;;;;;;;;;;5042645;28;20712;-79
2022/08/21 13:59:28;;;;;;;4.00;1.00;;;;;;;;;;5045325;28;20199;-79
2022/08/21 14:01:58;;;;;;;3.53;0.80;;;;;;;;;;5047733;28;20641;-79
2022/08/21 14:04:28;;;;;;;2.53;1.10;;;;;;;;;;5044508;28;20210;-79
2022/08/21 14:06:55;;;;;;;2.17;0.93;;;;;;;;;;5041965;28;20203;-79
2022/08/21 14:09:27;;;;;;;3.20;1.20;;;;;;;;;;5048669;28;20676;-79
2022/08/21 14:11:54;;;;;;;3.23;0.90;;;;;;;;;;5043131;28;20278;-80
2022/08/21 14:14:25;;;;;;;1.80;0.93;;;;;;;;;;5050348;28;20203;-78
2022/08/21 14:16:56;;;;;;;5.07;0.87;;;;;;;;;;5049201;28;20235;-78
2022/08/21 14:19:24;;;;;;;5.33;0.97;;;;;;;;;;5043489;28;20591;-77
2022/08/21 14:21:55;;;;;;;1.83;0.80;;;;;;;;;;5044996;28;20303;-78
2022/08/21 14:24:29;;;;;;;2.70;0.90;;;;;;;;;;5042969;28;20574;-76
2022/08/21 14:26:58;;;;;;;2.17;1.00;;;;;;;;;;5045923;28;20315;-77
2022/08/21 14:29:27;;;;;;;1.47;0.80;;;;;;;;;;5045643;28;20277;-78
2022/08/21 14:31:56;;;;;;;3.40;0.97;;;;;;;;;;5043332;28;20708;-78
2022/08/21 14:34:23;;;;;;;2.53;1.30;;;;;;;;;;5040905;28;20229;-78
2022/08/21 14:36:51;;;;;;;3.70;1.07;;;;;;;;;;5044834;28;20247;-77
2022/08/21 14:39:20;;;;;;;3.40;1.10;;;;;;;;;;5046327;28;20207;-77
2022/08/21 14:41:48;;;;;;;5.13;1.10;;;;;;;;;;5044336;28;20317;-78
2022/08/21 14:44:15;;;;;;;4.63;1.10;;;;;;;;;;5049215;28;20195;-76
2022/08/21 14:46:43;;;;;;;3.50;1.17;;;;;;;;;;5048071;28;20260;-78
2022/08/21 14:49:11;;;;;;;3.60;1.43;;;;;;;;;;5044214;28;20813;-78
2022/08/21 14:51:38;;;;;;;3.70;1.33;;;;;;;;;;5043340;28;20686;-78
2022/08/21 14:54:06;;;;;;;3.47;1.10;;;;;;;;;;5045108;28;20878;-76
2022/08/21 14:56:34;;;;;;;2.67;1.20;;;;;;;;;;5045741;28;20706;-78
2022/08/21 14:59:04;;;;;;;3.83;1.20;;;;;;;;;;5040344;28;20245;-77
2022/08/21 15:01:31;;;;;;;3.40;1.07;;;;;;;;;;5043203;28;20318;-78
2022/08/21 15:03:59;;;;;;;2.60;0.97;;;;;;;;;;5045360;28;20203;-77
2022/08/21 15:06:27;;;;;;;4.93;1.27;;;;;;;;;;5045031;28;20214;-78
2022/08/21 15:27:18;;;;;;;2.37;1.20;;;;;;;;;;5047786;28;20189;-78
2022/08/21 15:29:45;;;;;;;4.03;1.20;;;;;;;;;;5042003;28;20244;-77
2022/08/21 15:32:22;;;;;;;3.17;1.30;;;;;;;;;;5040849;28;20686;-79
2022/08/21 15:34:49;;;;;;;3.83;1.20;;;;;;;;;;5041628;28;20280;-77